Time;durP1;ratioP1;P1;durP2;ratioP2;P2;SDS_P1;SDS_P2;PMS_P1;PMS_P2;Temp;Humidity;BMP_temperature;BMP_pressure;BME280_temperature;BME280_humidity;BME280_pressure;Samples;Min_cycle;Max_cycle;Signal;HPM_P1;HPM_P2
2022/03/12 00:01:35;;;;;;;0.80;0.80;;;2.60;99.90;;;;;;4992482;28;20192;-75
2022/03/12 00:04:00;;;;;;;0.80;0.80;;;2.40;1.00;;;;;;4992326;28;20703;-77
2022/03/12 00:06:26;;;;;;;0.80;0.80;;;2.50;1.00;;;;;;4992358;28;20324;-75
2022/03/12 00:08:53;;;;;;;0.70;0.70;;;2.30;1.00;;;;;;4992279;28;20181;-77
2022/03/12 00:11:25;;;;;;;0.80;0.80;;;2.20;1.00;;;;;;4992504;28;20229;-73
2022/03/12 00:13:52;;;;;;;0.80;0.80;;;2.20;1.00;;;;;;4992932;28;20182;-76
2022/03/12 00:16:22;;;;;;;0.80;0.80;;;2.30;1.00;;;;;;4992888;28;20262;-77
2022/03/12 00:18:53;;;;;;;0.90;0.90;;;2.40;1.00;;;;;;4992908;28;20196;-77
2022/03/12 00:21:21;;;;;;;0.80;0.80;;;2.30;1.00;;;;;;4992968;28;20529;-74
2022/03/12 00:23:47;;;;;;;0.80;0.80;;;2.30;1.00;;;;;;4993094;28;20180;-76
2022/03/12 00:26:16;;;;;;;0.70;0.70;;;2.10;1.00;;;;;;4992690;28;20185;-76
2022/03/12 00:28:43;;;;;;;0.80;0.80;;;2.10;1.00;;;;;;4992761;28;20196;-75
2022/03/12 00:31:09;;;;;;;0.80;0.80;;;2.10;1.00;;;;;;4992131;28;20207;-74
2022/03/12 00:33:35;;;;;;;0.80;0.80;;;2.30;1.00;;;;;;4992474;28;20252;-75
2022/03/12 00:36:02;;;;;;;0.80;0.80;;;2.40;1.00;;;;;;4992035;28;20572;-76
2022/03/12 00:38:28;;;;;;;0.80;0.80;;;2.50;1.00;;;;;;4992519;28;20252;-77
2022/03/12 00:40:54;;;;;;;0.90;0.90;;;2.50;1.00;;;;;;4991833;28;20209;-77
2022/03/12 00:43:20;;;;;;;0.90;0.90;;;2.50;1.00;;;;;;4992177;28;20174;-76
2022/03/12 00:45:47;;;;;;;0.80;0.80;;;2.50;1.00;;;;;;4992257;28;20200;-77
2022/03/12 00:48:13;;;;;;;0.80;0.80;;;2.30;1.00;;;;;;4991977;28;20252;-76
2022/03/12 00:50:39;;;;;;;0.90;0.90;;;2.10;1.00;;;;;;4991740;28;20232;-77
2022/03/12 00:53:04;;;;;;;0.80;0.80;;;2.10;1.00;;;;;;4992024;28;20629;-77
2022/03/12 00:55:30;;;;;;;0.70;0.70;;;2.10;1.00;;;;;;4992285;28;20594;-76
2022/03/12 00:57:56;;;;;;;0.80;0.80;;;2.10;1.00;;;;;;4992349;28;20291;-76
2022/03/12 01:00:25;;;;;;;0.90;0.90;;;2.10;1.00;;;;;;4991475;28;20248;-76
2022/03/12 01:02:50;;;;;;;0.80;0.80;;;2.10;1.00;;;;;;4991918;28;20647;-76
2022/03/12 01:05:39;;;;;;;0.83;0.83;;;2.20;1.00;;;;;;4992497;28;20188;-76
2022/03/12 01:08:05;;;;;;;0.80;0.80;;;2.20;1.00;;;;;;4992233;28;20180;-74
2022/03/12 01:10:31;;;;;;;0.80;0.80;;;2.30;1.00;;;;;;4991397;28;20682;-74
2022/03/12 01:12:57;;;;;;;0.70;0.70;;;2.30;1.00;;;;;;4991857;28;20229;-75
2022/03/12 01:15:22;;;;;;;0.90;0.90;;;2.40;1.00;;;;;;4991855;28;20201;-78
2022/03/12 01:17:48;;;;;;;0.70;0.70;;;2.30;1.00;;;;;;4992209;28;20181;-75
2022/03/12 01:20:13;;;;;;;0.70;0.70;;;2.30;1.00;;;;;;4991584;28;20621;-76
2022/03/12 01:22:39;;;;;;;0.80;0.80;;;2.30;1.00;;;;;;4992018;28;20173;-76
2022/03/12 01:25:06;;;;;;;0.80;0.80;;;2.30;1.00;;;;;;4991781;28;20519;-77
2022/03/12 01:27:33;;;;;;;0.80;0.80;;;2.20;1.00;;;;;;4991663;28;20181;-75
2022/03/12 01:29:59;;;;;;;0.80;0.80;;;2.40;1.00;;;;;;4991675;28;20288;-75
2022/03/12 01:32:24;;;;;;;0.80;0.80;;;2.50;1.00;;;;;;4991870;28;20277;-77
2022/03/12 01:34:50;;;;;;;0.80;0.80;;;2.60;1.00;;;;;;4991548;28;20180;-77
2022/03/12 01:37:19;;;;;;;0.80;0.80;;;2.70;1.00;;;;;;4991865;28;20189;-76
2022/03/12 01:39:47;;;;;;;0.90;0.90;;;2.70;1.00;;;;;;4991364;28;20236;-75
2022/03/12 01:42:14;;;;;;;0.80;0.80;;;2.60;1.00;;;;;;4991786;28;20188;-76
2022/03/12 01:44:41;;;;;;;0.90;0.90;;;2.60;1.00;;;;;;4991753;28;20734;-75
2022/03/12 01:47:08;;;;;;;0.80;0.80;;;2.50;1.00;;;;;;4991888;28;20181;-75
2022/03/12 01:49:34;;;;;;;0.87;0.87;;;2.60;1.00;;;;;;4991152;28;20224;-75
2022/03/12 01:51:59;;;;;;;0.70;0.70;;;2.60;1.00;;;;;;4991528;28;20186;-75
2022/03/12 01:54:27;;;;;;;0.80;0.80;;;2.60;1.00;;;;;;4991243;28;20174;-75
2022/03/12 01:56:54;;;;;;;0.80;0.80;;;2.60;1.00;;;;;;4991599;28;20271;-73
2022/03/12 01:59:21;;;;;;;0.80;0.80;;;2.60;1.00;;;;;;4991081;28;20173;-74
2022/03/12 02:01:52;;;;;;;0.80;0.80;;;2.80;1.00;;;;;;4991152;28;20671;-74
2022/03/12 02:04:23;;;;;;;0.77;0.77;;;2.80;1.00;;;;;;4991942;28;20677;-74
2022/03/12 02:06:50;;;;;;;0.80;0.80;;;2.80;1.00;;;;;;4991507;28;20702;-75
2022/03/12 02:09:17;;;;;;;0.70;0.70;;;2.80;1.00;;;;;;4990726;28;20308;-74
2022/03/12 02:11:49;;;;;;;0.80;0.80;;;2.80;1.00;;;;;;4991587;28;20600;-73
2022/03/12 02:14:17;;;;;;;0.90;0.90;;;2.80;1.00;;;;;;4991722;28;20192;-73
2022/03/12 02:16:49;;;;;;;0.70;0.70;;;2.90;1.00;;;;;;4994863;28;20217;-75
2022/03/12 02:19:15;;;;;;;0.70;0.70;;;3.00;1.00;;;;;;4994544;28;20181;-75
2022/03/12 02:21:50;;;;;;;0.80;0.80;;;2.80;1.00;;;;;;4995142;28;20767;-73
2022/03/12 02:24:17;;;;;;;0.80;0.80;;;3.00;1.00;;;;;;4995197;28;20228;-74
2022/03/12 02:26:45;;;;;;;0.73;0.73;;;3.00;1.00;;;;;;4995260;28;20177;-74
2022/03/12 02:29:12;;;;;;;0.90;0.90;;;3.00;1.00;;;;;;4994410;28;20203;-74
2022/03/12 02:31:41;;;;;;;0.73;0.73;;;2.80;1.00;;;;;;4995146;28;20301;-73
2022/03/12 02:34:10;;;;;;;0.77;0.77;;;2.80;1.00;;;;;;4994849;28;20188;-74
2022/03/12 02:36:36;;;;;;;0.90;0.90;;;2.80;1.00;;;;;;4994494;28;20219;-74
2022/03/12 02:39:05;;;;;;;0.90;0.90;;;2.50;1.00;;;;;;4994499;28;20252;-75
2022/03/12 02:41:31;;;;;;;0.70;0.70;;;2.60;1.00;;;;;;4994878;28;20185;-73
2022/03/12 02:43:57;;;;;;;0.80;0.80;;;2.60;1.00;;;;;;4994694;28;20663;-74
2022/03/12 02:46:26;;;;;;;0.90;0.90;;;2.60;1.00;;;;;;4994577;28;20883;-74
2022/03/12 02:48:52;;;;;;;0.80;0.80;;;2.60;1.00;;;;;;4994087;28;20572;-74
2022/03/12 02:51:21;;;;;;;0.77;0.77;;;2.60;1.00;;;;;;4994337;28;20746;-75
2022/03/12 02:53:49;;;;;;;0.90;0.90;;;2.50;1.00;;;;;;4994251;28;20687;-74
2022/03/12 02:56:15;;;;;;;0.80;0.80;;;2.60;1.00;;;;;;4994417;28;20592;-75
2022/03/12 02:58:41;;;;;;;0.80;0.80;;;2.50;1.00;;;;;;4994368;28;20169;-73
2022/03/12 03:01:07;;;;;;;0.77;0.77;;;2.50;1.00;;;;;;4994300;28;20197;-74
2022/03/12 03:03:35;;;;;;;0.80;0.80;;;2.40;1.00;;;;;;4994172;28;20255;-74
2022/03/12 03:06:01;;;;;;;0.73;0.73;;;2.40;1.00;;;;;;4994663;28;20178;-75
2022/03/12 03:08:28;;;;;;;0.77;0.77;;;2.30;1.00;;;;;;4994161;28;20173;-74
2022/03/12 03:10:59;;;;;;;0.80;0.80;;;2.40;1.00;;;;;;4994572;28;20615;-75
2022/03/12 03:13:32;;;;;;;0.70;0.70;;;2.30;1.00;;;;;;4995635;28;20225;-74
2022/03/12 03:16:00;;;;;;;0.80;0.80;;;2.40;1.00;;;;;;4995485;28;20215;-74
2022/03/12 03:18:30;;;;;;;0.70;0.70;;;2.40;1.00;;;;;;4993942;28;20191;-73
2022/03/12 03:20:57;;;;;;;0.80;0.80;;;2.40;1.00;;;;;;4993891;28;20627;-73
2022/03/12 03:23:25;;;;;;;0.80;0.80;;;2.40;1.00;;;;;;4993692;28;20599;-74
2022/03/12 03:25:51;;;;;;;0.87;0.87;;;2.40;1.00;;;;;;4993840;28;20700;-74
2022/03/12 03:28:17;;;;;;;0.80;0.80;;;2.50;1.00;;;;;;4993640;28;20181;-74
2022/03/12 03:30:43;;;;;;;0.73;0.73;;;2.50;1.00;;;;;;4993193;28;20200;-74
2022/03/12 03:33:11;;;;;;;0.70;0.70;;;2.40;1.00;;;;;;4994001;28;20184;-74
2022/03/12 03:35:38;;;;;;;0.90;0.90;;;2.30;1.00;;;;;;4993607;28;20212;-72
2022/03/12 03:38:08;;;;;;;0.70;0.70;;;2.30;1.00;;;;;;4993809;28;20312;-73
2022/03/12 03:40:33;;;;;;;0.87;0.87;;;2.30;1.00;;;;;;4993092;28;20288;-74
2022/03/12 03:42:59;;;;;;;0.70;0.70;;;2.20;1.00;;;;;;4993621;28;20264;-72
2022/03/12 03:45:27;;;;;;;0.80;0.80;;;2.20;1.00;;;;;;4993653;28;20287;-73
2022/03/12 03:47:54;;;;;;;0.73;0.73;;;2.20;1.00;;;;;;4994043;28;20181;-72
2022/03/12 03:50:25;;;;;;;0.90;0.90;;;2.10;1.00;;;;;;4992724;28;20267;-73
2022/03/12 03:53:04;;;;;;;0.80;0.80;;;2.10;1.00;;;;;;4992771;28;20196;-73
2022/03/12 03:55:34;;;;;;;0.80;0.80;;;2.20;1.00;;;;;;4993080;28;20347;-73
2022/03/12 03:58:00;;;;;;;0.90;0.90;;;2.20;1.00;;;;;;4993479;28;20169;-73
2022/03/12 04:00:26;;;;;;;0.80;0.80;;;2.20;1.00;;;;;;4992716;28;20200;-74
2022/03/12 04:03:12;;;;;;;0.73;0.73;;;2.20;1.00;;;;;;4993066;28;20184;-74
2022/03/12 04:05:38;;;;;;;0.80;0.80;;;2.20;1.00;;;;;;4993352;28;20193;-73
2022/03/12 04:08:07;;;;;;;0.80;0.80;;;2.20;1.00;;;;;;4992849;28;20329;-73
2022/03/12 04:10:34;;;;;;;0.80;0.80;;;2.20;1.00;;;;;;4993033;28;20810;-73
2022/03/12 04:13:00;;;;;;;0.90;0.90;;;2.10;1.00;;;;;;4994132;28;20178;-74
2022/03/12 04:15:26;;;;;;;0.70;0.70;;;1.90;1.00;;;;;;4993602;28;20221;-74
2022/03/12 04:17:53;;;;;;;0.80;0.80;;;1.90;1.00;;;;;;4993261;28;20176;-73
2022/03/12 04:20:20;;;;;;;0.70;0.70;;;1.90;1.00;;;;;;4992167;28;20208;-74
2022/03/12 04:22:51;;;;;;;0.80;0.80;;;1.90;1.00;;;;;;4992570;28;20232;-74
2022/03/12 04:25:18;;;;;;;0.80;0.80;;;1.90;1.00;;;;;;4992734;28;20169;-74
2022/03/12 04:27:44;;;;;;;0.90;0.90;;;1.90;1.00;;;;;;4992796;28;20180;-74
2022/03/12 04:30:14;;;;;;;0.80;0.80;;;1.90;1.00;;;;;;4992171;28;20197;-74
2022/03/12 04:32:42;;;;;;;0.70;0.70;;;2.00;1.00;;;;;;4992458;28;20174;-74
2022/03/12 04:35:09;;;;;;;0.80;0.80;;;2.00;1.00;;;;;;4992186;28;20679;-74
2022/03/12 04:37:36;;;;;;;0.80;0.80;;;2.00;1.00;;;;;;4991985;28;20579;-74
2022/03/12 04:40:04;;;;;;;0.80;0.80;;;1.90;1.00;;;;;;4991958;28;20283;-74
2022/03/12 04:42:30;;;;;;;0.70;0.70;;;2.00;1.00;;;;;;4992548;28;20189;-73
2022/03/12 04:44:55;;;;;;;0.80;0.80;;;1.90;1.00;;;;;;4992299;28;20202;-74
2022/03/12 04:47:21;;;;;;;0.80;0.80;;;1.90;1.00;;;;;;4992310;28;20204;-73
2022/03/12 04:49:47;;;;;;;0.90;0.90;;;1.90;1.00;;;;;;4991409;28;20204;-74
2022/03/12 04:52:13;;;;;;;0.70;0.70;;;2.00;1.00;;;;;;4992109;28;20222;-73
2022/03/12 04:54:39;;;;;;;0.70;0.70;;;1.80;1.00;;;;;;4992361;28;20173;-73
2022/03/12 04:57:05;;;;;;;0.83;0.83;;;1.60;1.00;;;;;;4992171;28;20737;-73
2022/03/12 04:59:30;;;;;;;0.80;0.80;;;1.70;1.00;;;;;;4991590;28;20196;-73
2022/03/12 05:01:57;;;;;;;0.70;0.70;;;1.90;1.00;;;;;;4992104;28;20185;-74
2022/03/12 05:04:23;;;;;;;0.70;0.70;;;2.10;1.00;;;;;;4992012;28;20181;-73
2022/03/12 05:06:48;;;;;;;0.80;0.80;;;2.10;1.00;;;;;;4991427;28;20656;-74
2022/03/12 05:09:14;;;;;;;0.80;0.80;;;2.00;1.00;;;;;;4994513;28;20185;-73
2022/03/12 05:11:39;;;;;;;0.80;0.80;;;2.00;1.00;;;;;;4994051;28;20177;-73
2022/03/12 05:14:12;;;;;;;0.83;0.83;;;2.00;1.00;;;;;;4994531;28;20749;-74
2022/03/12 05:16:38;;;;;;;0.73;0.73;;;2.20;1.00;;;;;;4992129;28;20236;-74
2022/03/12 05:19:06;;;;;;;0.80;0.80;;;2.10;1.00;;;;;;4991187;28;20644;-75
2022/03/12 05:21:33;;;;;;;0.70;0.70;;;2.10;1.00;;;;;;4992193;28;20169;-75
2022/03/12 05:23:58;;;;;;;0.80;0.80;;;1.90;1.00;;;;;;4992220;28;20188;-75
2022/03/12 05:26:24;;;;;;;0.80;0.80;;;2.00;1.00;;;;;;4991868;28;20177;-75
2022/03/12 05:28:49;;;;;;;0.73;0.73;;;2.00;1.00;;;;;;4991800;28;20183;-74
2022/03/12 05:31:16;;;;;;;0.80;0.80;;;2.00;1.00;;;;;;4991870;28;20662;-75
2022/03/12 05:33:43;;;;;;;0.80;0.80;;;2.10;1.00;;;;;;4991700;28;20204;-75
2022/03/12 05:36:08;;;;;;;0.80;0.80;;;2.10;1.00;;;;;;4991765;28;20219;-75
2022/03/12 05:38:37;;;;;;;0.70;0.70;;;2.20;1.00;;;;;;4991735;28;20173;-75
2022/03/12 05:41:10;;;;;;;0.80;0.80;;;2.10;1.00;;;;;;4991246;28;20200;-74
2022/03/12 05:43:41;;;;;;;0.90;0.90;;;2.20;1.00;;;;;;4991900;28;20185;-73
2022/03/12 05:46:07;;;;;;;0.90;0.90;;;2.10;1.00;;;;;;4991382;28;20283;-74
2022/03/12 05:48:32;;;;;;;0.77;0.77;;;2.10;1.00;;;;;;4991750;28;20709;-74
2022/03/12 05:50:59;;;;;;;0.80;0.80;;;2.30;1.00;;;;;;4993457;28;20210;-75
2022/03/12 05:53:25;;;;;;;0.77;0.77;;;2.20;1.00;;;;;;4995269;28;20308;-74
2022/03/12 05:55:51;;;;;;;0.80;0.80;;;2.20;1.00;;;;;;4995463;28;20208;-74
2022/03/12 05:58:19;;;;;;;0.77;0.77;;;2.30;1.00;;;;;;4995530;28;20173;-75
2022/03/12 06:00:45;;;;;;;0.80;0.80;;;2.40;1.00;;;;;;4994812;28;20563;-75
2022/03/12 06:03:11;;;;;;;0.80;0.80;;;2.40;1.00;;;;;;4995679;28;20552;-74
2022/03/12 06:05:40;;;;;;;0.70;0.70;;;2.50;1.00;;;;;;4995690;28;20651;-75
2022/03/12 06:08:06;;;;;;;0.80;0.80;;;2.30;1.00;;;;;;4995426;28;20239;-75
2022/03/12 06:10:34;;;;;;;0.70;0.70;;;2.00;1.00;;;;;;4995126;28;20205;-74
2022/03/12 06:13:01;;;;;;;0.80;0.80;;;1.90;1.00;;;;;;4995231;28;20253;-75
2022/03/12 06:15:27;;;;;;;0.87;0.87;;;2.10;1.00;;;;;;4994990;28;20239;-74
2022/03/12 06:17:54;;;;;;;0.80;0.80;;;2.30;1.00;;;;;;4995319;28;20200;-75
2022/03/12 06:20:21;;;;;;;0.80;0.80;;;2.50;1.00;;;;;;4994553;28;20208;-73
2022/03/12 06:22:48;;;;;;;0.80;0.80;;;2.60;1.00;;;;;;4995061;28;20544;-74
2022/03/12 06:25:16;;;;;;;0.70;0.70;;;2.70;1.00;;;;;;4994903;28;20639;-75
2022/03/12 06:27:43;;;;;;;0.70;0.70;;;2.80;1.00;;;;;;4994743;28;20228;-74
2022/03/12 06:30:10;;;;;;;0.80;0.80;;;2.90;1.00;;;;;;4994404;28;20556;-74
2022/03/12 06:32:37;;;;;;;0.80;0.80;;;2.80;1.00;;;;;;4994862;28;20177;-75
2022/03/12 06:35:04;;;;;;;0.80;0.80;;;3.00;1.00;;;;;;4994810;28;20178;-74
2022/03/12 06:37:30;;;;;;;0.90;0.90;;;2.90;1.00;;;;;;4994780;28;20188;-74
2022/03/12 06:39:56;;;;;;;0.80;0.80;;;3.10;1.00;;;;;;4994082;28;20193;-73
2022/03/12 06:42:24;;;;;;;0.80;0.80;;;3.30;1.00;;;;;;4994523;28;20185;-73
2022/03/12 06:44:53;;;;;;;1.00;1.00;;;3.50;1.00;;;;;;4994700;28;20197;-75
2022/03/12 06:47:19;;;;;;;0.90;0.90;;;3.40;1.00;;;;;;4994447;28;20666;-75
2022/03/12 06:49:44;;;;;;;0.73;0.73;;;3.50;1.00;;;;;;4993924;28;20259;-74
2022/03/12 06:52:10;;;;;;;0.80;0.80;;;3.90;1.00;;;;;;4998021;28;20243;-73
2022/03/12 06:54:36;;;;;;;0.80;0.80;;;4.40;1.00;;;;;;5001997;28;20180;-73
2022/03/12 06:57:03;;;;;;;0.70;0.70;;;4.50;1.00;;;;;;5001197;28;20251;-74
2022/03/12 06:59:29;;;;;;;0.70;0.70;;;4.80;1.00;;;;;;4993827;28;20228;-74
2022/03/12 07:01:55;;;;;;;0.70;0.70;;;4.70;1.00;;;;;;4994037;28;20213;-75
2022/03/12 07:04:21;;;;;;;0.70;0.70;;;4.40;1.00;;;;;;4994349;28;20264;-74
2022/03/12 07:06:48;;;;;;;0.60;0.60;;;4.80;1.00;;;;;;4994249;28;20329;-74
2022/03/12 07:09:14;;;;;;;0.60;0.60;;;5.30;1.00;;;;;;4993348;28;20656;-75
2022/03/12 07:11:39;;;;;;;0.70;0.70;;;5.50;1.00;;;;;;4995617;28;20235;-74
2022/03/12 07:14:05;;;;;;;0.60;0.60;;;5.90;1.00;;;;;;5001838;28;20819;-75
2022/03/12 07:16:31;;;;;;;0.60;0.60;;;6.10;1.00;;;;;;5003346;28;20206;-75
2022/03/12 07:18:57;;;;;;;0.70;0.70;;;5.90;1.00;;;;;;5001903;28;20177;-76
2022/03/12 07:21:24;;;;;;;0.53;0.53;;;6.50;1.00;;;;;;5000428;28;20573;-73
2022/03/12 07:23:49;;;;;;;0.50;0.50;;;6.50;1.00;;;;;;4998641;28;20181;-74
2022/03/12 07:26:15;;;;;;;0.60;0.60;;;6.80;1.00;;;;;;4993237;28;20284;-72
2022/03/12 07:28:41;;;;;;;0.50;0.50;;;7.70;1.00;;;;;;4993672;28;20161;-76
2022/03/12 07:31:07;;;;;;;0.60;0.60;;;7.70;1.00;;;;;;4992747;28;20193;-75
2022/03/12 07:33:33;;;;;;;0.50;0.50;;;7.70;1.00;;;;;;5000457;28;20172;-75
2022/03/12 07:35:59;;;;;;;0.50;0.50;;;8.20;1.00;;;;;;4999834;28;20209;-74
2022/03/12 07:38:25;;;;;;;0.70;0.70;;;8.10;1.00;;;;;;4993758;28;20172;-76
2022/03/12 07:40:51;;;;;;;0.50;0.50;;;8.50;1.00;;;;;;4993089;28;20203;-77
2022/03/12 07:43:16;;;;;;;0.50;0.50;;;9.00;1.00;;;;;;4993645;28;20256;-78
2022/03/12 07:45:42;;;;;;;0.50;0.50;;;9.20;1.00;;;;;;4993417;28;20228;-75
2022/03/12 07:48:07;;;;;;;0.53;0.53;;;8.40;1.00;;;;;;4993418;28;20236;-76
2022/03/12 07:50:34;;;;;;;0.50;0.50;;;9.10;1.00;;;;;;4992780;28;20203;-76
2022/03/12 07:52:59;;;;;;;0.50;0.50;;;10.10;1.00;;;;;;4993407;28;20185;-76
2022/03/12 07:55:25;;;;;;;0.50;0.50;;;9.50;1.00;;;;;;4993792;28;20296;-74
2022/03/12 07:57:51;;;;;;;0.50;0.50;;;9.20;1.00;;;;;;4993763;28;20257;-74
2022/03/12 08:00:18;;;;;;;0.60;0.60;;;8.90;1.00;;;;;;4992542;28;20244;-76
2022/03/12 08:02:45;;;;;;;0.40;0.40;;;9.60;1.00;;;;;;4993096;28;20188;-73
2022/03/12 08:05:12;;;;;;;0.40;0.40;;;9.90;1.00;;;;;;4994540;28;20256;-73
2022/03/12 08:07:39;;;;;;;0.50;0.50;;;9.70;1.00;;;;;;4995315;28;20683;-73
2022/03/12 08:10:06;;;;;;;0.40;0.40;;;9.70;1.00;;;;;;4994913;28;20236;-75
2022/03/12 08:12:34;;;;;;;0.43;0.43;;;10.30;1.00;;;;;;4992668;28;20184;-74
2022/03/12 08:15:03;;;;;;;0.50;0.50;;;11.30;1.00;;;;;;4992981;28;20180;-74
2022/03/12 08:17:29;;;;;;;0.30;0.30;;;10.80;1.00;;;;;;4993401;28;20192;-77
2022/03/12 08:19:55;;;;;;;0.40;0.40;;;10.80;1.00;;;;;;4992951;28;20203;-77
2022/03/12 08:22:20;;;;;;;0.40;0.40;;;11.20;1.00;;;;;;4993163;28;20204;-74
2022/03/12 08:24:47;;;;;;;0.40;0.40;;;11.30;1.00;;;;;;4992424;28;20177;-74
2022/03/12 08:27:14;;;;;;;0.40;0.40;;;10.80;1.00;;;;;;4993238;28;20185;-73
2022/03/12 08:29:41;;;;;;;0.40;0.40;;;11.00;1.00;;;;;;4992068;28;20197;-74
2022/03/12 08:32:08;;;;;;;0.40;0.40;;;12.00;1.00;;;;;;4992235;28;20181;-73
2022/03/12 08:34:34;;;;;;;0.30;0.30;;;12.80;1.00;;;;;;4992215;28;20200;-74
2022/03/12 08:37:00;;;;;;;0.30;0.30;;;12.50;1.00;;;;;;4991890;28;20738;-73
2022/03/12 08:39:26;;;;;;;0.40;0.40;;;10.70;1.00;;;;;;4991693;28;20563;-73
2022/03/12 08:41:52;;;;;;;0.43;0.43;;;11.40;1.00;;;;;;4992248;28;20702;-73
2022/03/12 08:44:17;;;;;;;0.40;0.40;;;11.00;1.00;;;;;;4991943;28;20175;-74
2022/03/12 08:46:45;;;;;;;0.30;0.30;;;11.30;1.00;;;;;;4991860;28;20185;-75
2022/03/12 08:49:11;;;;;;;0.40;0.40;;;11.30;1.00;;;;;;4988656;28;20195;-74
2022/03/12 08:51:38;;;;;;;0.40;0.40;;;11.90;1.00;;;;;;4991256;28;20169;-75
2022/03/12 08:54:05;;;;;;;0.30;0.30;;;11.70;1.00;;;;;;4991993;28;20185;-74
2022/03/12 08:56:31;;;;;;;0.40;0.40;;;11.90;1.00;;;;;;4988801;28;20209;-75
2022/03/12 08:58:57;;;;;;;0.40;0.40;;;11.80;1.00;;;;;;4991008;28;20280;-74
2022/03/12 09:01:23;;;;;;;0.47;0.47;;;11.60;1.00;;;;;;4992101;28;20208;-74
2022/03/12 09:03:49;;;;;;;0.30;0.30;;;11.60;1.00;;;;;;4991891;28;20173;-73
2022/03/12 09:06:16;;;;;;;0.47;0.47;;;11.20;1.00;;;;;;4992131;28;20267;-75
2022/03/12 09:08:43;;;;;;;0.37;0.37;;;11.40;1.00;;;;;;4992044;28;20273;-73
2022/03/12 09:11:08;;;;;;;0.40;0.40;;;11.50;1.00;;;;;;4991050;28;20193;-75
2022/03/12 09:13:34;;;;;;;0.30;0.30;;;11.60;1.00;;;;;;4991392;28;20180;-73
2022/03/12 09:16:00;;;;;;;0.40;0.40;;;11.90;1.00;;;;;;4991418;28;20568;-74
2022/03/12 09:18:26;;;;;;;0.37;0.37;;;12.20;1.00;;;;;;4991732;28;20255;-74
2022/03/12 09:20:52;;;;;;;0.30;0.30;;;12.50;1.00;;;;;;4991713;28;20687;-75
2022/03/12 09:23:20;;;;;;;0.30;0.30;;;12.20;1.00;;;;;;4991737;28;20229;-75
2022/03/12 09:25:47;;;;;;;0.33;0.33;;;12.70;1.00;;;;;;4991370;28;20252;-75
2022/03/12 09:28:13;;;;;;;0.30;0.30;;;13.10;1.00;;;;;;4991318;28;20188;-74
2022/03/12 09:30:40;;;;;;;0.40;0.40;;;14.10;1.00;;;;;;4991354;28;20228;-75
2022/03/12 09:33:07;;;;;;;0.30;0.30;;;13.60;1.00;;;;;;4992096;28;20177;-74
2022/03/12 09:35:33;;;;;;;0.30;0.30;;;13.90;1.00;;;;;;4991995;28;20201;-73
2022/03/12 09:38:01;;;;;;;0.30;0.30;;;14.40;1.00;;;;;;4992002;28;20257;-73
2022/03/12 09:40:28;;;;;;;0.30;0.30;;;14.70;1.00;;;;;;4991294;28;20189;-73
2022/03/12 09:42:54;;;;;;;0.30;0.30;;;15.20;1.00;;;;;;4991294;28;20181;-72
2022/03/12 09:45:23;;;;;;;0.30;0.30;;;15.20;1.00;;;;;;4991335;28;20193;-73
2022/03/12 09:47:50;;;;;;;0.30;0.30;;;14.50;1.00;;;;;;4991440;28;20184;-73
2022/03/12 09:50:16;;;;;;;0.33;0.33;;;14.50;1.00;;;;;;4991304;28;20200;-72
2022/03/12 09:52:41;;;;;;;0.40;0.40;;;14.10;1.00;;;;;;4991607;28;20239;-72
2022/03/12 09:55:08;;;;;;;0.30;0.30;;;14.60;1.00;;;;;;4991118;28;20188;-73
2022/03/12 09:57:34;;;;;;;0.30;0.30;;;14.50;1.00;;;;;;4990781;28;20590;-73
2022/03/12 10:00:00;;;;;;;0.40;0.40;;;14.50;1.00;;;;;;4990327;28;20205;-74
2022/03/12 10:02:26;;;;;;;0.40;0.40;;;14.50;1.00;;;;;;4990806;28;20550;-73
2022/03/12 10:04:53;;;;;;;0.30;0.30;;;16.00;1.00;;;;;;4990436;28;20185;-74
2022/03/12 10:07:18;;;;;;;0.23;0.23;;;16.70;1.00;;;;;;4990778;28;20181;-74
2022/03/12 10:09:44;;;;;;;0.40;0.40;;;16.90;1.00;;;;;;4990657;28;20576;-73
2022/03/12 10:12:10;;;;;;;0.20;0.20;;;16.50;1.00;;;;;;4991353;28;20177;-73
2022/03/12 10:14:35;;;;;;;0.30;0.30;;;15.50;1.00;;;;;;4989601;28;20240;-73
2022/03/12 10:17:02;;;;;;;0.30;0.30;;;15.30;1.00;;;;;;4989049;28;20674;-72
2022/03/12 10:19:34;;;;;;;0.30;0.30;;;16.00;1.00;;;;;;4989602;28;20574;-74
2022/03/12 10:22:00;;;;;;;0.30;0.30;;;16.30;1.00;;;;;;4990379;28;20201;-74
2022/03/12 10:24:25;;;;;;;0.30;0.30;;;16.60;1.00;;;;;;4990328;28;20539;-72
2022/03/12 10:26:51;;;;;;;0.30;0.30;;;16.00;1.00;;;;;;4990179;28;20187;-74
2022/03/12 10:29:17;;;;;;;0.30;0.30;;;15.60;1.00;;;;;;4990388;28;20181;-75
2022/03/12 10:31:42;;;;;;;0.30;0.30;;;14.70;1.00;;;;;;4991437;28;20177;-73
2022/03/12 10:34:21;;;;;;;0.30;0.30;;;14.60;1.00;;;;;;4991324;28;20239;-72
2022/03/12 10:36:48;;;;;;;0.30;0.30;;;15.80;1.00;;;;;;4992814;28;20562;-72
2022/03/12 10:39:14;;;;;;;0.33;0.33;;;14.50;1.00;;;;;;4994061;28;20181;-74
2022/03/12 10:41:41;;;;;;;0.40;0.40;;;15.00;1.00;;;;;;4994527;28;20586;-73
2022/03/12 10:44:06;;;;;;;0.30;0.30;;;15.80;1.00;;;;;;4994473;28;20256;-73
2022/03/12 10:46:34;;;;;;;0.40;0.40;;;16.90;1.00;;;;;;4994320;28;20648;-74
2022/03/12 10:49:00;;;;;;;0.30;0.30;;;17.30;1.00;;;;;;4994126;28;20177;-73
2022/03/12 10:51:28;;;;;;;0.50;0.50;;;17.50;1.00;;;;;;4994348;28;20225;-73
2022/03/12 10:54:07;;;;;;;0.30;0.30;;;16.90;1.00;;;;;;4994330;28;20181;-74
2022/03/12 10:56:48;;;;;;;0.40;0.40;;;16.90;1.00;;;;;;4994001;28;20683;-73
2022/03/12 10:59:19;;;;;;;0.30;0.30;;;17.00;1.00;;;;;;4993656;28;20615;-74
2022/03/12 11:01:57;;;;;;;0.30;0.30;;;16.40;1.00;;;;;;4994290;28;20177;-73
2022/03/12 11:04:26;;;;;;;0.30;0.30;;;15.50;1.00;;;;;;4994399;28;20198;-73
2022/03/12 11:06:55;;;;;;;0.30;0.30;;;16.20;1.00;;;;;;4995825;28;20235;-72
2022/03/12 11:09:39;;;;;;;0.30;0.30;;;16.70;1.00;;;;;;4995936;28;20554;-73
2022/03/12 11:12:30;;;;;;;0.30;0.30;;;15.70;1.00;;;;;;4995869;28;20204;-74
2022/03/12 11:15:10;;;;;;;0.40;0.40;;;15.80;1.00;;;;;;4994487;28;20189;-73
2022/03/12 11:17:44;;;;;;;0.30;0.30;;;16.20;1.00;;;;;;4994036;28;20271;-73
2022/03/12 11:20:22;;;;;;;0.30;0.30;;;16.40;1.00;;;;;;4993473;28;20277;-73
2022/03/12 11:23:12;;;;;;;0.30;0.30;;;17.60;1.00;;;;;;4993898;28;20181;-72
2022/03/12 11:26:06;;;;;;;0.33;0.33;;;17.60;1.00;;;;;;4993614;28;20188;-73
2022/03/12 11:28:34;;;;;;;0.30;0.30;;;19.40;1.00;;;;;;4993929;28;20174;-73
2022/03/12 11:31:01;;;;;;;0.30;0.30;;;20.20;1.00;;;;;;4993047;28;20576;-74
2022/03/12 11:33:27;;;;;;;0.30;0.30;;;19.10;1.00;;;;;;4994279;28;20212;-73
2022/03/12 11:36:03;;;;;;;0.30;0.30;;;19.90;1.00;;;;;;4993752;28;20217;-73
2022/03/12 11:38:29;;;;;;;0.27;0.27;;;19.90;1.00;;;;;;4993757;28;20551;-74
2022/03/12 11:41:09;;;;;;;0.30;0.30;;;20.00;1.00;;;;;;4992959;28;20197;-74
2022/03/12 11:43:42;;;;;;;0.30;0.30;;;20.00;1.00;;;;;;4993947;28;20173;-75
2022/03/12 11:46:11;;;;;;;0.30;0.30;;;20.10;1.00;;;;;;4993449;28;20204;-74
2022/03/12 11:48:38;;;;;;;0.30;0.30;;;19.90;1.00;;;;;;4992215;28;20196;-77
2022/03/12 11:51:20;;;;;;;0.40;0.40;;;19.20;1.00;;;;;;4993143;28;20223;-74
2022/03/12 11:53:45;;;;;;;0.30;0.30;;;19.10;1.00;;;;;;4993495;28;20169;-75
2022/03/12 11:56:13;;;;;;;0.30;0.30;;;18.40;1.00;;;;;;4993248;28;20201;-76
2022/03/12 11:58:38;;;;;;;0.30;0.30;;;19.50;1.00;;;;;;4993505;28;20224;-74
2022/03/12 12:01:05;;;;;;;0.40;0.40;;;19.20;1.00;;;;;;4992615;28;20196;-76
2022/03/12 12:03:31;;;;;;;0.33;0.33;;;19.90;1.00;;;;;;4993371;28;20181;-75
2022/03/12 12:05:57;;;;;;;0.30;0.30;;;20.30;1.00;;;;;;4993136;28;20181;-75
2022/03/12 12:08:24;;;;;;;0.30;0.30;;;19.70;1.00;;;;;;4993076;28;20200;-77
2022/03/12 12:10:54;;;;;;;0.37;0.37;;;19.80;1.00;;;;;;4992371;28;20221;-75
2022/03/12 12:13:20;;;;;;;0.30;0.30;;;20.80;1.00;;;;;;4992842;28;20272;-75
2022/03/12 12:15:46;;;;;;;0.30;0.30;;;21.40;1.00;;;;;;4992576;28;20640;-75
2022/03/12 12:18:12;;;;;;;0.30;0.30;;;21.20;1.00;;;;;;4992987;28;20181;-74
2022/03/12 12:20:40;;;;;;;0.30;0.30;;;21.40;1.00;;;;;;4992516;28;20201;-76
2022/03/12 12:23:06;;;;;;;0.20;0.20;;;21.80;1.00;;;;;;4992919;28;20179;-75
2022/03/12 12:25:37;;;;;;;0.23;0.23;;;21.30;1.00;;;;;;4992959;28;20181;-76
2022/03/12 12:28:22;;;;;;;0.30;0.30;;;21.40;1.00;;;;;;4992755;28;20327;-75
2022/03/12 12:30:49;;;;;;;0.40;0.40;;;21.40;1.00;;;;;;4992111;28;20207;-73
2022/03/12 12:33:16;;;;;;;0.30;0.30;;;21.40;1.00;;;;;;4992771;28;20177;-76
2022/03/12 12:35:42;;;;;;;0.30;0.30;;;20.80;1.00;;;;;;4992596;28;20220;-75
2022/03/12 12:38:09;;;;;;;0.30;0.30;;;20.50;1.00;;;;;;4992523;28;20268;-76
2022/03/12 12:40:47;;;;;;;0.20;0.20;;;21.30;1.00;;;;;;4991771;28;20207;-80
2022/03/12 12:43:18;;;;;;;0.30;0.30;;;21.60;1.00;;;;;;4992534;28;20196;-78
2022/03/12 12:45:52;;;;;;;0.30;0.30;;;19.80;1.00;;;;;;4992253;28;20275;-75
2022/03/12 12:48:30;;;;;;;0.20;0.20;;;19.70;1.00;;;;;;4992137;28;20666;-75
2022/03/12 12:51:10;;;;;;;0.20;0.20;;;19.90;1.00;;;;;;4991583;28;20555;-77
2022/03/12 12:53:53;;;;;;;0.30;0.30;;;20.00;1.00;;;;;;4992155;28;20608;-74
2022/03/12 12:56:36;;;;;;;0.30;0.30;;;21.10;1.00;;;;;;4992025;28;20292;-74
2022/03/12 12:59:02;;;;;;;0.40;0.40;;;21.40;1.00;;;;;;4991258;28;20180;-77
2022/03/12 13:01:40;;;;;;;0.30;0.30;;;22.30;1.00;;;;;;4991937;28;20252;-75
2022/03/12 13:04:08;;;;;;;0.27;0.27;;;21.90;1.00;;;;;;4992454;28;20181;-74
2022/03/12 13:06:36;;;;;;;0.30;0.30;;;21.50;1.00;;;;;;4992020;28;20251;-73